sensor_id;sensor_type;location;lat;lon;timestamp;P1;durP1;ratioP1;P2;durP2;ratioP2
37823;SDS011;23667;43.246;26.576;2022-07-29T00:00:11;6.15;;;1.60;;
37823;SDS011;23667;43.246;26.576;2022-07-29T00:02:37;4.75;;;1.40;;
37823;SDS011;23667;43.246;26.576;2022-07-29T00:05:03;6.68;;;2.33;;
37823;SDS011;23667;43.246;26.576;2022-07-29T00:07:29;11.35;;;1.95;;
37823;SDS011;23667;43.246;26.576;2022-07-29T00:09:55;5.75;;;1.77;;
37823;SDS011;23667;43.246;26.576;2022-07-29T00:12:21;4.00;;;1.80;;
37823;SDS011;23667;43.246;26.576;2022-07-29T00:14:48;2.60;;;1.80;;
37823;SDS011;23667;43.246;26.576;2022-07-29T00:17:13;3.42;;;1.92;;
37823;SDS011;23667;43.246;26.576;2022-07-29T00:19:39;5.45;;;2.13;;
37823;SDS011;23667;43.246;26.576;2022-07-29T00:22:05;5.70;;;2.35;;
37823;SDS011;23667;43.246;26.576;2022-07-29T00:24:30;5.78;;;2.53;;
37823;SDS011;23667;43.246;26.576;2022-07-29T00:26:56;6.50;;;2.60;;
37823;SDS011;23667;43.246;26.576;2022-07-29T00:29:21;5.38;;;2.10;;
37823;SDS011;23667;43.246;26.576;2022-07-29T00:31:47;4.05;;;2.15;;
37823;SDS011;23667;43.246;26.576;2022-07-29T00:34:13;4.85;;;1.80;;
37823;SDS011;23667;43.246;26.576;2022-07-29T00:36:57;5.95;;;2.05;;
37823;SDS011;23667;43.246;26.576;2022-07-29T00:39:23;5.47;;;2.35;;
37823;SDS011;23667;43.246;26.576;2022-07-29T00:41:48;6.97;;;1.90;;
37823;SDS011;23667;43.246;26.576;2022-07-29T00:44:14;3.75;;;2.20;;
37823;SDS011;23667;43.246;26.576;2022-07-29T00:46:40;8.38;;;2.00;;
37823;SDS011;23667;43.246;26.576;2022-07-29T00:49:05;4.72;;;2.00;;
37823;SDS011;23667;43.246;26.576;2022-07-29T00:51:32;6.15;;;2.20;;
37823;SDS011;23667;43.246;26.576;2022-07-29T00:54:01;8.60;;;2.15;;
37823;SDS011;23667;43.246;26.576;2022-07-29T00:56:29;8.05;;;2.55;;
37823;SDS011;23667;43.246;26.576;2022-07-29T00:58:56;3.83;;;2.00;;
37823;SDS011;23667;43.246;26.576;2022-07-29T01:01:22;7.68;;;2.33;;
37823;SDS011;23667;43.246;26.576;2022-07-29T01:03:47;7.53;;;2.13;;
37823;SDS011;23667;43.246;26.576;2022-07-29T01:06:13;8.18;;;2.63;;
37823;SDS011;23667;43.246;26.576;2022-07-29T01:08:40;10.18;;;2.28;;
37823;SDS011;23667;43.246;26.576;2022-07-29T01:11:06;9.40;;;3.17;;
37823;SDS011;23667;43.246;26.576;2022-07-29T01:13:31;7.38;;;3.25;;
37823;SDS011;23667;43.246;26.576;2022-07-29T01:15:59;7.45;;;2.30;;
37823;SDS011;23667;43.246;26.576;2022-07-29T01:18:31;4.73;;;2.90;;
37823;SDS011;23667;43.246;26.576;2022-07-29T01:29:45;5.80;;;2.70;;
37823;SDS011;23667;43.246;26.576;2022-07-29T01:32:19;5.15;;;2.92;;
37823;SDS011;23667;43.246;26.576;2022-07-29T01:39:52;7.97;;;2.63;;
37823;SDS011;23667;43.246;26.576;2022-07-29T01:42:30;10.07;;;3.35;;
37823;SDS011;23667;43.246;26.576;2022-07-29T01:45:11;12.23;;;3.78;;
37823;SDS011;23667;43.246;26.576;2022-07-29T01:47:46;8.13;;;3.38;;
37823;SDS011;23667;43.246;26.576;2022-07-29T01:50:19;15.43;;;3.60;;
37823;SDS011;23667;43.246;26.576;2022-07-29T01:52:56;7.03;;;3.25;;
37823;SDS011;23667;43.246;26.576;2022-07-29T01:55:25;6.13;;;2.70;;
37823;SDS011;23667;43.246;26.576;2022-07-29T01:57:53;2.97;;;2.20;;
37823;SDS011;23667;43.246;26.576;2022-07-29T02:00:22;4.50;;;2.47;;
37823;SDS011;23667;43.246;26.576;2022-07-29T02:02:50;4.40;;;2.28;;
37823;SDS011;23667;43.246;26.576;2022-07-29T02:05:18;5.30;;;2.80;;
37823;SDS011;23667;43.246;26.576;2022-07-29T02:07:47;8.27;;;2.50;;
37823;SDS011;23667;43.246;26.576;2022-07-29T02:10:14;4.28;;;2.40;;
37823;SDS011;23667;43.246;26.576;2022-07-29T02:12:42;4.55;;;1.85;;
37823;SDS011;23667;43.246;26.576;2022-07-29T02:15:09;6.05;;;2.17;;
37823;SDS011;23667;43.246;26.576;2022-07-29T02:17:41;6.22;;;2.75;;
37823;SDS011;23667;43.246;26.576;2022-07-29T02:20:11;3.30;;;2.40;;
37823;SDS011;23667;43.246;26.576;2022-07-29T02:22:38;6.60;;;2.17;;
37823;SDS011;23667;43.246;26.576;2022-07-29T02:25:05;3.85;;;2.30;;
37823;SDS011;23667;43.246;26.576;2022-07-29T02:27:33;5.97;;;1.90;;
37823;SDS011;23667;43.246;26.576;2022-07-29T02:30:00;5.03;;;2.50;;
37823;SDS011;23667;43.246;26.576;2022-07-29T02:32:27;4.00;;;2.03;;
37823;SDS011;23667;43.246;26.576;2022-07-29T02:34:54;5.57;;;2.25;;
37823;SDS011;23667;43.246;26.576;2022-07-29T02:37:21;4.75;;;2.50;;
37823;SDS011;23667;43.246;26.576;2022-07-29T02:39:49;4.30;;;2.67;;
37823;SDS011;23667;43.246;26.576;2022-07-29T02:42:18;6.88;;;2.60;;
37823;SDS011;23667;43.246;26.576;2022-07-29T02:44:48;6.45;;;2.35;;
37823;SDS011;23667;43.246;26.576;2022-07-29T02:47:24;6.18;;;2.45;;
37823;SDS011;23667;43.246;26.576;2022-07-29T02:50:05;3.95;;;2.13;;
37823;SDS011;23667;43.246;26.576;2022-07-29T02:52:44;6.35;;;2.45;;
37823;SDS011;23667;43.246;26.576;2022-07-29T02:58:33;5.97;;;2.58;;
37823;SDS011;23667;43.246;26.576;2022-07-29T03:01:03;5.35;;;2.55;;
37823;SDS011;23667;43.246;26.576;2022-07-29T03:03:34;5.80;;;2.00;;
37823;SDS011;23667;43.246;26.576;2022-07-29T03:06:02;7.22;;;2.67;;
37823;SDS011;23667;43.246;26.576;2022-07-29T03:08:29;6.97;;;2.67;;
37823;SDS011;23667;43.246;26.576;2022-07-29T03:10:57;4.22;;;2.50;;
37823;SDS011;23667;43.246;26.576;2022-07-29T03:13:23;4.88;;;2.50;;
37823;SDS011;23667;43.246;26.576;2022-07-29T03:15:50;7.15;;;2.10;;
37823;SDS011;23667;43.246;26.576;2022-07-29T03:18:17;8.43;;;3.28;;
37823;SDS011;23667;43.246;26.576;2022-07-29T03:20:43;4.88;;;2.58;;
37823;SDS011;23667;43.246;26.576;2022-07-29T03:23:09;15.27;;;2.85;;
37823;SDS011;23667;43.246;26.576;2022-07-29T03:25:35;4.05;;;2.72;;
37823;SDS011;23667;43.246;26.576;2022-07-29T03:28:00;4.13;;;2.22;;
37823;SDS011;23667;43.246;26.576;2022-07-29T03:30:26;5.82;;;2.47;;
37823;SDS011;23667;43.246;26.576;2022-07-29T03:32:52;15.50;;;3.78;;
37823;SDS011;23667;43.246;26.576;2022-07-29T03:35:18;6.95;;;2.42;;
37823;SDS011;23667;43.246;26.576;2022-07-29T03:37:44;6.63;;;2.70;;
37823;SDS011;23667;43.246;26.576;2022-07-29T03:40:11;4.18;;;2.17;;
37823;SDS011;23667;43.246;26.576;2022-07-29T03:42:43;6.72;;;3.10;;
37823;SDS011;23667;43.246;26.576;2022-07-29T03:45:17;8.73;;;2.72;;
37823;SDS011;23667;43.246;26.576;2022-07-29T03:47:45;11.65;;;2.72;;
37823;SDS011;23667;43.246;26.576;2022-07-29T03:50:15;4.38;;;2.72;;
37823;SDS011;23667;43.246;26.576;2022-07-29T03:52:42;12.57;;;2.92;;
37823;SDS011;23667;43.246;26.576;2022-07-29T03:55:08;8.50;;;3.72;;
37823;SDS011;23667;43.246;26.576;2022-07-29T03:57:34;6.75;;;2.90;;
37823;SDS011;23667;43.246;26.576;2022-07-29T04:00:01;15.02;;;3.33;;
37823;SDS011;23667;43.246;26.576;2022-07-29T04:02:29;8.68;;;3.40;;
37823;SDS011;23667;43.246;26.576;2022-07-29T04:04:56;9.38;;;3.78;;
37823;SDS011;23667;43.246;26.576;2022-07-29T04:07:22;11.98;;;3.40;;
37823;SDS011;23667;43.246;26.576;2022-07-29T04:09:48;19.77;;;3.70;;
37823;SDS011;23667;43.246;26.576;2022-07-29T04:12:14;8.73;;;3.63;;
37823;SDS011;23667;43.246;26.576;2022-07-29T04:14:40;11.82;;;3.80;;
37823;SDS011;23667;43.246;26.576;2022-07-29T04:17:05;7.60;;;3.25;;
37823;SDS011;23667;43.246;26.576;2022-07-29T04:19:31;7.07;;;4.13;;
37823;SDS011;23667;43.246;26.576;2022-07-29T04:21:57;9.25;;;3.95;;
37823;SDS011;23667;43.246;26.576;2022-07-29T04:24:24;13.88;;;3.80;;
37823;SDS011;23667;43.246;26.576;2022-07-29T04:26:50;19.95;;;3.75;;
37823;SDS011;23667;43.246;26.576;2022-07-29T04:29:15;17.63;;;4.88;;
37823;SDS011;23667;43.246;26.576;2022-07-29T04:31:41;14.40;;;3.70;;
37823;SDS011;23667;43.246;26.576;2022-07-29T04:34:07;16.05;;;4.75;;
37823;SDS011;23667;43.246;26.576;2022-07-29T04:36:34;15.88;;;4.55;;
37823;SDS011;23667;43.246;26.576;2022-07-29T04:38:59;16.00;;;4.22;;
37823;SDS011;23667;43.246;26.576;2022-07-29T04:41:26;23.33;;;4.47;;
37823;SDS011;23667;43.246;26.576;2022-07-29T04:43:52;10.68;;;3.58;;
37823;SDS011;23667;43.246;26.576;2022-07-29T04:46:18;14.00;;;3.30;;
37823;SDS011;23667;43.246;26.576;2022-07-29T04:48:46;15.93;;;3.75;;
37823;SDS011;23667;43.246;26.576;2022-07-29T04:51:12;10.80;;;3.70;;
37823;SDS011;23667;43.246;26.576;2022-07-29T04:53:39;13.95;;;3.50;;
37823;SDS011;23667;43.246;26.576;2022-07-29T04:56:04;15.18;;;3.67;;
37823;SDS011;23667;43.246;26.576;2022-07-29T04:58:30;9.27;;;3.40;;
37823;SDS011;23667;43.246;26.576;2022-07-29T05:00:56;13.18;;;4.20;;
37823;SDS011;23667;43.246;26.576;2022-07-29T05:03:21;11.80;;;3.28;;
37823;SDS011;23667;43.246;26.576;2022-07-29T05:05:47;7.88;;;3.55;;
37823;SDS011;23667;43.246;26.576;2022-07-29T05:08:12;11.70;;;3.40;;
37823;SDS011;23667;43.246;26.576;2022-07-29T05:10:38;9.50;;;3.85;;
37823;SDS011;23667;43.246;26.576;2022-07-29T05:13:04;13.13;;;3.00;;
37823;SDS011;23667;43.246;26.576;2022-07-29T05:15:31;13.02;;;3.25;;
37823;SDS011;23667;43.246;26.576;2022-07-29T05:17:57;13.38;;;3.13;;
37823;SDS011;23667;43.246;26.576;2022-07-29T05:20:23;7.97;;;3.00;;
37823;SDS011;23667;43.246;26.576;2022-07-29T05:22:53;9.38;;;2.75;;
37823;SDS011;23667;43.246;26.576;2022-07-29T05:25:19;9.60;;;2.20;;
37823;SDS011;23667;43.246;26.576;2022-07-29T05:27:45;10.20;;;2.70;;
37823;SDS011;23667;43.246;26.576;2022-07-29T05:30:10;5.88;;;2.08;;
37823;SDS011;23667;43.246;26.576;2022-07-29T05:32:36;12.27;;;3.22;;
37823;SDS011;23667;43.246;26.576;2022-07-29T05:35:02;9.45;;;2.08;;
37823;SDS011;23667;43.246;26.576;2022-07-29T05:37:27;10.38;;;2.00;;
37823;SDS011;23667;43.246;26.576;2022-07-29T05:39:53;6.90;;;1.83;;
37823;SDS011;23667;43.246;26.576;2022-07-29T05:42:18;6.82;;;1.33;;
37823;SDS011;23667;43.246;26.576;2022-07-29T05:44:44;11.77;;;1.83;;
37823;SDS011;23667;43.246;26.576;2022-07-29T05:47:09;7.30;;;1.55;;
37823;SDS011;23667;43.246;26.576;2022-07-29T05:49:35;5.93;;;1.63;;
37823;SDS011;23667;43.246;26.576;2022-07-29T05:52:00;3.65;;;1.42;;
37823;SDS011;23667;43.246;26.576;2022-07-29T05:54:26;12.35;;;1.67;;
37823;SDS011;23667;43.246;26.576;2022-07-29T05:56:52;15.23;;;2.40;;
37823;SDS011;23667;43.246;26.576;2022-07-29T05:59:17;5.32;;;1.20;;
37823;SDS011;23667;43.246;26.576;2022-07-29T06:01:43;5.53;;;1.30;;
37823;SDS011;23667;43.246;26.576;2022-07-29T06:04:08;2.22;;;0.80;;
37823;SDS011;23667;43.246;26.576;2022-07-29T06:06:34;2.15;;;0.85;;
37823;SDS011;23667;43.246;26.576;2022-07-29T06:08:59;5.28;;;1.10;;
37823;SDS011;23667;43.246;26.576;2022-07-29T06:11:26;2.47;;;0.82;;
37823;SDS011;23667;43.246;26.576;2022-07-29T06:13:51;3.20;;;0.95;;
37823;SDS011;23667;43.246;26.576;2022-07-29T06:16:18;6.60;;;1.10;;
37823;SDS011;23667;43.246;26.576;2022-07-29T06:18:43;6.43;;;1.20;;
37823;SDS011;23667;43.246;26.576;2022-07-29T06:21:09;3.53;;;1.23;;
37823;SDS011;23667;43.246;26.576;2022-07-29T06:23:38;5.82;;;0.90;;
37823;SDS011;23667;43.246;26.576;2022-07-29T06:26:04;9.93;;;1.35;;
37823;SDS011;23667;43.246;26.576;2022-07-29T06:28:31;4.68;;;0.93;;
37823;SDS011;23667;43.246;26.576;2022-07-29T06:30:57;7.35;;;0.80;;
37823;SDS011;23667;43.246;26.576;2022-07-29T06:33:23;4.72;;;0.63;;
37823;SDS011;23667;43.246;26.576;2022-07-29T06:35:48;4.15;;;0.70;;
37823;SDS011;23667;43.246;26.576;2022-07-29T06:38:14;2.10;;;0.75;;
37823;SDS011;23667;43.246;26.576;2022-07-29T06:40:43;3.42;;;0.93;;
37823;SDS011;23667;43.246;26.576;2022-07-29T06:43:25;1.48;;;0.52;;
37823;SDS011;23667;43.246;26.576;2022-07-29T06:45:57;3.65;;;0.80;;
37823;SDS011;23667;43.246;26.576;2022-07-29T06:48:24;4.97;;;0.60;;
37823;SDS011;23667;43.246;26.576;2022-07-29T06:50:49;2.55;;;0.70;;
37823;SDS011;23667;43.246;26.576;2022-07-29T06:53:15;2.65;;;0.60;;
37823;SDS011;23667;43.246;26.576;2022-07-29T06:55:40;1.45;;;0.63;;
37823;SDS011;23667;43.246;26.576;2022-07-29T06:58:07;2.97;;;0.70;;
37823;SDS011;23667;43.246;26.576;2022-07-29T07:00:34;6.70;;;0.73;;
37823;SDS011;23667;43.246;26.576;2022-07-29T07:03:00;5.22;;;0.95;;
37823;SDS011;23667;43.246;26.576;2022-07-29T07:05:25;2.55;;;0.77;;
37823;SDS011;23667;43.246;26.576;2022-07-29T07:07:50;4.07;;;0.80;;
37823;SDS011;23667;43.246;26.576;2022-07-29T07:10:16;2.83;;;1.05;;
37823;SDS011;23667;43.246;26.576;2022-07-29T07:12:41;3.47;;;0.73;;
37823;SDS011;23667;43.246;26.576;2022-07-29T07:15:07;1.85;;;0.63;;
37823;SDS011;23667;43.246;26.576;2022-07-29T07:17:33;4.68;;;1.08;;
37823;SDS011;23667;43.246;26.576;2022-07-29T07:19:58;2.58;;;0.70;;
37823;SDS011;23667;43.246;26.576;2022-07-29T07:22:24;2.17;;;0.90;;
37823;SDS011;23667;43.246;26.576;2022-07-29T07:24:49;4.32;;;0.60;;
37823;SDS011;23667;43.246;26.576;2022-07-29T07:27:15;2.45;;;0.65;;
37823;SDS011;23667;43.246;26.576;2022-07-29T07:29:40;9.63;;;0.70;;
37823;SDS011;23667;43.246;26.576;2022-07-29T07:32:06;5.97;;;0.60;;
37823;SDS011;23667;43.246;26.576;2022-07-29T07:34:32;1.23;;;0.55;;
37823;SDS011;23667;43.246;26.576;2022-07-29T07:36:58;3.42;;;0.75;;
37823;SDS011;23667;43.246;26.576;2022-07-29T07:39:24;4.10;;;0.80;;
37823;SDS011;23667;43.246;26.576;2022-07-29T07:41:51;3.58;;;0.60;;
37823;SDS011;23667;43.246;26.576;2022-07-29T07:44:17;2.10;;;0.63;;
37823;SDS011;23667;43.246;26.576;2022-07-29T07:46:42;3.22;;;0.90;;
37823;SDS011;23667;43.246;26.576;2022-07-29T07:49:09;2.33;;;0.65;;
37823;SDS011;23667;43.246;26.576;2022-07-29T07:51:35;3.75;;;0.70;;
37823;SDS011;23667;43.246;26.576;2022-07-29T07:54:01;5.20;;;0.80;;
37823;SDS011;23667;43.246;26.576;2022-07-29T07:56:26;5.50;;;0.73;;
37823;SDS011;23667;43.246;26.576;2022-07-29T07:58:52;3.22;;;0.60;;
37823;SDS011;23667;43.246;26.576;2022-07-29T08:01:18;3.10;;;0.60;;
37823;SDS011;23667;43.246;26.576;2022-07-29T08:03:46;3.17;;;0.60;;
37823;SDS011;23667;43.246;26.576;2022-07-29T08:06:12;5.38;;;0.50;;
37823;SDS011;23667;43.246;26.576;2022-07-29T08:08:38;4.93;;;0.73;;
37823;SDS011;23667;43.246;26.576;2022-07-29T08:11:04;2.70;;;0.80;;
37823;SDS011;23667;43.246;26.576;2022-07-29T08:13:32;2.30;;;0.77;;
37823;SDS011;23667;43.246;26.576;2022-07-29T08:15:58;1.10;;;0.50;;
37823;SDS011;23667;43.246;26.576;2022-07-29T08:18:28;4.13;;;0.77;;
37823;SDS011;23667;43.246;26.576;2022-07-29T08:20:55;3.53;;;0.80;;
37823;SDS011;23667;43.246;26.576;2022-07-29T08:23:21;4.30;;;0.65;;
37823;SDS011;23667;43.246;26.576;2022-07-29T08:26:00;2.35;;;0.80;;
37823;SDS011;23667;43.246;26.576;2022-07-29T08:28:26;4.60;;;0.70;;
37823;SDS011;23667;43.246;26.576;2022-07-29T08:30:51;2.95;;;1.00;;
37823;SDS011;23667;43.246;26.576;2022-07-29T08:33:17;6.95;;;0.70;;
37823;SDS011;23667;43.246;26.576;2022-07-29T08:35:43;3.22;;;0.80;;
37823;SDS011;23667;43.246;26.576;2022-07-29T08:38:11;5.13;;;0.80;;
37823;SDS011;23667;43.246;26.576;2022-07-29T08:40:46;4.45;;;1.10;;
37823;SDS011;23667;43.246;26.576;2022-07-29T08:43:13;3.08;;;1.17;;
37823;SDS011;23667;43.246;26.576;2022-07-29T08:45:42;4.97;;;1.15;;
37823;SDS011;23667;43.246;26.576;2022-07-29T08:48:11;2.30;;;1.10;;
37823;SDS011;23667;43.246;26.576;2022-07-29T08:50:38;10.27;;;1.40;;
37823;SDS011;23667;43.246;26.576;2022-07-29T08:53:04;2.00;;;0.98;;
37823;SDS011;23667;43.246;26.576;2022-07-29T08:55:32;3.58;;;1.00;;
37823;SDS011;23667;43.246;26.576;2022-07-29T08:57:58;4.38;;;1.25;;
37823;SDS011;23667;43.246;26.576;2022-07-29T09:00:27;8.98;;;1.20;;
37823;SDS011;23667;43.246;26.576;2022-07-29T09:02:58;4.35;;;1.17;;
37823;SDS011;23667;43.246;26.576;2022-07-29T09:05:25;4.13;;;0.90;;
37823;SDS011;23667;43.246;26.576;2022-07-29T09:07:51;7.60;;;1.02;;
37823;SDS011;23667;43.246;26.576;2022-07-29T09:10:17;7.05;;;1.00;;
37823;SDS011;23667;43.246;26.576;2022-07-29T09:12:43;6.00;;;0.90;;
37823;SDS011;23667;43.246;26.576;2022-07-29T09:15:09;7.45;;;1.00;;
37823;SDS011;23667;43.246;26.576;2022-07-29T09:20:13;2.25;;;0.93;;
37823;SDS011;23667;43.246;26.576;2022-07-29T09:22:40;4.97;;;1.02;;
37823;SDS011;23667;43.246;26.576;2022-07-29T09:25:06;2.10;;;0.70;;
37823;SDS011;23667;43.246;26.576;2022-07-29T09:27:32;6.75;;;1.10;;
37823;SDS011;23667;43.246;26.576;2022-07-29T09:30:05;3.05;;;0.82;;
37823;SDS011;23667;43.246;26.576;2022-07-29T09:32:32;4.97;;;0.90;;
37823;SDS011;23667;43.246;26.576;2022-07-29T09:35:24;6.55;;;0.70;;
37823;SDS011;23667;43.246;26.576;2022-07-29T09:37:50;4.10;;;0.77;;
37823;SDS011;23667;43.246;26.576;2022-07-29T09:40:20;3.00;;;0.70;;
37823;SDS011;23667;43.246;26.576;2022-07-29T09:42:47;3.63;;;0.80;;
37823;SDS011;23667;43.246;26.576;2022-07-29T09:45:13;1.48;;;0.70;;
37823;SDS011;23667;43.246;26.576;2022-07-29T09:47:54;3.28;;;0.82;;
37823;SDS011;23667;43.246;26.576;2022-07-29T09:50:22;4.93;;;0.90;;
37823;SDS011;23667;43.246;26.576;2022-07-29T09:52:51;4.75;;;0.80;;
37823;SDS011;23667;43.246;26.576;2022-07-29T09:55:18;2.95;;;0.70;;
37823;SDS011;23667;43.246;26.576;2022-07-29T09:57:44;3.53;;;0.95;;
37823;SDS011;23667;43.246;26.576;2022-07-29T10:00:15;4.90;;;0.90;;
37823;SDS011;23667;43.246;26.576;2022-07-29T10:02:43;6.80;;;1.08;;
37823;SDS011;23667;43.246;26.576;2022-07-29T10:05:24;3.58;;;0.90;;
37823;SDS011;23667;43.246;26.576;2022-07-29T10:07:54;6.97;;;1.05;;
37823;SDS011;23667;43.246;26.576;2022-07-29T10:10:22;7.30;;;1.23;;
37823;SDS011;23667;43.246;26.576;2022-07-29T10:12:59;4.13;;;0.98;;
37823;SDS011;23667;43.246;26.576;2022-07-29T10:15:27;4.13;;;1.20;;
37823;SDS011;23667;43.246;26.576;2022-07-29T10:17:55;2.38;;;1.00;;
37823;SDS011;23667;43.246;26.576;2022-07-29T10:20:22;8.02;;;1.20;;
37823;SDS011;23667;43.246;26.576;2022-07-29T10:22:48;5.32;;;1.13;;
37823;SDS011;23667;43.246;26.576;2022-07-29T10:25:16;13.00;;;1.15;;
37823;SDS011;23667;43.246;26.576;2022-07-29T10:27:42;2.58;;;1.23;;
37823;SDS011;23667;43.246;26.576;2022-07-29T10:30:10;5.00;;;1.38;;
37823;SDS011;23667;43.246;26.576;2022-07-29T10:32:43;18.73;;;1.50;;
37823;SDS011;23667;43.246;26.576;2022-07-29T10:43:52;5.68;;;1.33;;
37823;SDS011;23667;43.246;26.576;2022-07-29T10:46:27;5.60;;;0.90;;
37823;SDS011;23667;43.246;26.576;2022-07-29T10:54:15;6.80;;;1.25;;
37823;SDS011;23667;43.246;26.576;2022-07-29T10:56:44;8.05;;;1.05;;
37823;SDS011;23667;43.246;26.576;2022-07-29T10:59:22;4.10;;;0.90;;
37823;SDS011;23667;43.246;26.576;2022-07-29T11:01:49;3.45;;;1.00;;
37823;SDS011;23667;43.246;26.576;2022-07-29T11:04:16;7.18;;;0.93;;
37823;SDS011;23667;43.246;26.576;2022-07-29T11:09:30;4.15;;;1.00;;
37823;SDS011;23667;43.246;26.576;2022-07-29T11:11:56;4.25;;;0.80;;
37823;SDS011;23667;43.246;26.576;2022-07-29T11:17:27;7.85;;;0.98;;
37823;SDS011;23667;43.246;26.576;2022-07-29T11:20:40;2.92;;;0.80;;
37823;SDS011;23667;43.246;26.576;2022-07-29T11:22:59;5.88;;;0.85;;
37823;SDS011;23667;43.246;26.576;2022-07-29T11:25:25;3.75;;;0.88;;
37823;SDS011;23667;43.246;26.576;2022-07-29T11:27:54;5.13;;;1.02;;
37823;SDS011;23667;43.246;26.576;2022-07-29T11:30:50;2.97;;;0.80;;
37823;SDS011;23667;43.246;26.576;2022-07-29T11:33:32;2.40;;;1.00;;
37823;SDS011;23667;43.246;26.576;2022-07-29T11:36:08;2.08;;;1.00;;
37823;SDS011;23667;43.246;26.576;2022-07-29T11:38:35;2.53;;;0.90;;
37823;SDS011;23667;43.246;26.576;2022-07-29T11:41:34;4.88;;;0.80;;
37823;SDS011;23667;43.246;26.576;2022-07-29T11:43:58;4.43;;;1.10;;
37823;SDS011;23667;43.246;26.576;2022-07-29T11:46:47;3.28;;;1.05;;
37823;SDS011;23667;43.246;26.576;2022-07-29T11:49:23;4.35;;;1.17;;
37823;SDS011;23667;43.246;26.576;2022-07-29T11:51:54;5.25;;;1.17;;
37823;SDS011;23667;43.246;26.576;2022-07-29T11:54:32;4.25;;;1.20;;
37823;SDS011;23667;43.246;26.576;2022-07-29T11:57:00;3.15;;;0.90;;
37823;SDS011;23667;43.246;26.576;2022-07-29T11:59:25;6.13;;;0.90;;
37823;SDS011;23667;43.246;26.576;2022-07-29T12:01:55;1.65;;;0.90;;
37823;SDS011;23667;43.246;26.576;2022-07-29T12:04:21;6.65;;;1.35;;
37823;SDS011;23667;43.246;26.576;2022-07-29T12:06:57;4.05;;;0.80;;
37823;SDS011;23667;43.246;26.576;2022-07-29T12:09:23;8.95;;;0.85;;
37823;SDS011;23667;43.246;26.576;2022-07-29T12:11:49;2.05;;;1.00;;
37823;SDS011;23667;43.246;26.576;2022-07-29T12:16:59;5.70;;;2.03;;
37823;SDS011;23667;43.246;26.576;2022-07-29T12:19:28;2.85;;;1.00;;
37823;SDS011;23667;43.246;26.576;2022-07-29T12:21:54;3.83;;;1.00;;
37823;SDS011;23667;43.246;26.576;2022-07-29T12:24:25;1.80;;;0.80;;
37823;SDS011;23667;43.246;26.576;2022-07-29T12:26:51;3.47;;;0.90;;
37823;SDS011;23667;43.246;26.576;2022-07-29T12:29:18;9.23;;;1.30;;
37823;SDS011;23667;43.246;26.576;2022-07-29T12:31:44;5.03;;;1.25;;
37823;SDS011;23667;43.246;26.576;2022-07-29T12:34:11;4.15;;;0.80;;
37823;SDS011;23667;43.246;26.576;2022-07-29T12:36:41;4.88;;;0.90;;
37823;SDS011;23667;43.246;26.576;2022-07-29T12:39:08;3.13;;;1.40;;
37823;SDS011;23667;43.246;26.576;2022-07-29T12:41:35;5.85;;;1.00;;
37823;SDS011;23667;43.246;26.576;2022-07-29T12:44:01;5.53;;;1.02;;
37823;SDS011;23667;43.246;26.576;2022-07-29T12:46:27;4.38;;;1.13;;
37823;SDS011;23667;43.246;26.576;2022-07-29T12:48:53;7.88;;;1.05;;
37823;SDS011;23667;43.246;26.576;2022-07-29T12:51:53;6.38;;;1.17;;
37823;SDS011;23667;43.246;26.576;2022-07-29T12:54:12;5.27;;;1.00;;
37823;SDS011;23667;43.246;26.576;2022-07-29T12:56:40;2.80;;;0.88;;
37823;SDS011;23667;43.246;26.576;2022-07-29T12:59:11;5.35;;;0.75;;
37823;SDS011;23667;43.246;26.576;2022-07-29T13:01:37;6.30;;;1.02;;
37823;SDS011;23667;43.246;26.576;2022-07-29T13:04:03;5.28;;;1.08;;
37823;SDS011;23667;43.246;26.576;2022-07-29T13:09:11;4.70;;;1.15;;
37823;SDS011;23667;43.246;26.576;2022-07-29T13:11:39;3.63;;;0.70;;
37823;SDS011;23667;43.246;26.576;2022-07-29T13:14:10;2.42;;;1.15;;
37823;SDS011;23667;43.246;26.576;2022-07-29T13:16:37;4.25;;;0.90;;
37823;SDS011;23667;43.246;26.576;2022-07-29T13:19:35;4.00;;;0.98;;
37823;SDS011;23667;43.246;26.576;2022-07-29T13:22:14;2.25;;;0.80;;
37823;SDS011;23667;43.246;26.576;2022-07-29T13:27:28;7.38;;;0.70;;
37823;SDS011;23667;43.246;26.576;2022-07-29T13:29:55;1.80;;;0.90;;
37823;SDS011;23667;43.246;26.576;2022-07-29T13:32:23;2.60;;;1.02;;
37823;SDS011;23667;43.246;26.576;2022-07-29T13:34:50;4.07;;;1.10;;
37823;SDS011;23667;43.246;26.576;2022-07-29T13:37:16;5.50;;;1.10;;
37823;SDS011;23667;43.246;26.576;2022-07-29T13:39:42;3.90;;;1.23;;
37823;SDS011;23667;43.246;26.576;2022-07-29T13:42:08;2.85;;;0.95;;
37823;SDS011;23667;43.246;26.576;2022-07-29T13:44:34;3.42;;;1.08;;
37823;SDS011;23667;43.246;26.576;2022-07-29T13:47:00;14.68;;;1.40;;
37823;SDS011;23667;43.246;26.576;2022-07-29T13:49:27;4.43;;;1.35;;
37823;SDS011;23667;43.246;26.576;2022-07-29T13:51:53;3.15;;;0.95;;
37823;SDS011;23667;43.246;26.576;2022-07-29T13:54:19;10.65;;;1.23;;
37823;SDS011;23667;43.246;26.576;2022-07-29T13:56:44;7.53;;;1.23;;
37823;SDS011;23667;43.246;26.576;2022-07-29T13:59:10;6.10;;;1.10;;
37823;SDS011;23667;43.246;26.576;2022-07-29T14:01:36;5.03;;;1.00;;
37823;SDS011;23667;43.246;26.576;2022-07-29T14:04:01;12.45;;;1.00;;
37823;SDS011;23667;43.246;26.576;2022-07-29T14:06:27;7.20;;;1.00;;
37823;SDS011;23667;43.246;26.576;2022-07-29T14:08:53;2.28;;;1.08;;
37823;SDS011;23667;43.246;26.576;2022-07-29T14:11:19;3.30;;;1.13;;
37823;SDS011;23667;43.246;26.576;2022-07-29T14:13:45;3.80;;;1.13;;
37823;SDS011;23667;43.246;26.576;2022-07-29T14:16:10;3.45;;;1.10;;
37823;SDS011;23667;43.246;26.576;2022-07-29T14:18:36;2.72;;;0.98;;
37823;SDS011;23667;43.246;26.576;2022-07-29T14:21:01;3.05;;;1.30;;
37823;SDS011;23667;43.246;26.576;2022-07-29T14:23:27;3.17;;;0.88;;
37823;SDS011;23667;43.246;26.576;2022-07-29T14:25:53;7.97;;;1.13;;
37823;SDS011;23667;43.246;26.576;2022-07-29T14:28:18;3.38;;;1.05;;
37823;SDS011;23667;43.246;26.576;2022-07-29T14:30:44;2.63;;;0.90;;
37823;SDS011;23667;43.246;26.576;2022-07-29T14:33:09;2.90;;;1.00;;
37823;SDS011;23667;43.246;26.576;2022-07-29T14:35:35;5.10;;;1.33;;
37823;SDS011;23667;43.246;26.576;2022-07-29T14:38:00;6.53;;;1.05;;
37823;SDS011;23667;43.246;26.576;2022-07-29T14:40:26;3.40;;;1.20;;
37823;SDS011;23667;43.246;26.576;2022-07-29T14:42:51;2.85;;;1.30;;
37823;SDS011;23667;43.246;26.576;2022-07-29T14:45:17;3.55;;;1.17;;
37823;SDS011;23667;43.246;26.576;2022-07-29T14:47:43;8.10;;;1.30;;
37823;SDS011;23667;43.246;26.576;2022-07-29T14:50:09;3.10;;;1.20;;
37823;SDS011;23667;43.246;26.576;2022-07-29T14:52:35;6.50;;;1.77;;
37823;SDS011;23667;43.246;26.576;2022-07-29T14:55:01;5.82;;;1.10;;
37823;SDS011;23667;43.246;26.576;2022-07-29T14:57:27;10.18;;;1.20;;
37823;SDS011;23667;43.246;26.576;2022-07-29T14:59:52;9.95;;;1.60;;
37823;SDS011;23667;43.246;26.576;2022-07-29T15:02:18;7.45;;;1.23;;
37823;SDS011;23667;43.246;26.576;2022-07-29T15:04:43;3.15;;;1.13;;
37823;SDS011;23667;43.246;26.576;2022-07-29T15:07:11;6.50;;;1.17;;
37823;SDS011;23667;43.246;26.576;2022-07-29T15:09:36;3.50;;;1.13;;
37823;SDS011;23667;43.246;26.576;2022-07-29T15:12:02;12.90;;;1.50;;
37823;SDS011;23667;43.246;26.576;2022-07-29T15:14:28;9.00;;;1.50;;
37823;SDS011;23667;43.246;26.576;2022-07-29T15:16:54;6.10;;;1.52;;
37823;SDS011;23667;43.246;26.576;2022-07-29T15:19:19;7.43;;;1.30;;
37823;SDS011;23667;43.246;26.576;2022-07-29T15:21:45;5.40;;;1.45;;
37823;SDS011;23667;43.246;26.576;2022-07-29T15:24:11;11.70;;;1.10;;